createdAt,value
2017-12-27T00:00:41.661Z,1.70
2017-12-27T00:03:15.645Z,1.30
2017-12-27T00:05:49.613Z,1.20
2017-12-27T00:08:23.671Z,1.30
2017-12-27T00:10:57.682Z,1.30
2017-12-27T00:13:31.716Z,1.30
2017-12-27T00:16:05.802Z,1.10
2017-12-27T00:18:39.763Z,1.00
2017-12-27T00:21:13.796Z,1.00
2017-12-27T00:23:47.801Z,1.00
2017-12-27T00:26:21.860Z,1.00
2017-12-27T00:28:55.912Z,1.00
2017-12-27T00:31:25.123Z,0.80
2017-12-27T00:33:53.458Z,0.70
2017-12-27T00:36:21.803Z,0.70
2017-12-27T00:38:50.138Z,0.90
2017-12-27T00:41:18.516Z,1.00
2017-12-27T00:43:46.853Z,0.80
2017-12-27T00:46:15.184Z,0.80
2017-12-27T00:48:43.568Z,0.90
2017-12-27T00:51:11.885Z,1.00
2017-12-27T00:53:40.993Z,0.90
2017-12-27T00:56:09.300Z,0.90
2017-12-27T00:58:37.640Z,1.10
2017-12-27T01:01:06.738Z,1.30
2017-12-27T01:03:35.840Z,1.30
2017-12-27T01:06:04.160Z,1.20
2017-12-27T01:08:32.496Z,1.30
2017-12-27T01:11:00.834Z,1.40
2017-12-27T01:13:29.187Z,1.30
2017-12-27T01:15:57.497Z,1.30
2017-12-27T01:18:25.853Z,1.40
2017-12-27T01:20:54.161Z,1.40
2017-12-27T01:23:22.504Z,1.40
2017-12-27T01:25:50.820Z,1.50
2017-12-27T01:28:19.917Z,1.50
2017-12-27T01:30:48.236Z,1.50
2017-12-27T01:33:16.561Z,1.50
2017-12-27T01:35:44.882Z,1.50
2017-12-27T01:38:13.209Z,1.40
2017-12-27T01:40:42.413Z,1.40
2017-12-27T01:43:10.722Z,1.40
2017-12-27T01:45:39.832Z,1.40
2017-12-27T01:48:08.134Z,1.40
2017-12-27T01:50:36.459Z,1.30
2017-12-27T01:53:05.540Z,1.20
2017-12-27T01:55:33.887Z,1.20
2017-12-27T01:58:02.192Z,1.20
2017-12-27T02:00:30.518Z,1.00
2017-12-27T02:02:58.832Z,0.90
2017-12-27T02:05:27.187Z,0.80
2017-12-27T02:07:55.500Z,0.70
2017-12-27T02:10:23.806Z,0.60
2017-12-27T02:12:52.140Z,0.60
2017-12-27T02:15:20.444Z,0.60
2017-12-27T02:17:48.782Z,0.70
2017-12-27T02:20:17.088Z,0.70
2017-12-27T02:22:45.421Z,0.70
2017-12-27T02:25:13.745Z,0.70
2017-12-27T02:27:42.069Z,0.60
2017-12-27T02:30:10.382Z,0.60
2017-12-27T02:32:38.769Z,0.50
2017-12-27T02:35:07.081Z,0.50
2017-12-27T02:37:35.421Z,0.70
2017-12-27T02:43:10.240Z,0.80
2017-12-27T02:45:38.559Z,0.70
2017-12-27T02:48:07.649Z,0.80
2017-12-27T02:50:35.992Z,0.80
2017-12-27T02:53:05.118Z,0.80
2017-12-27T02:55:33.425Z,0.80
2017-12-27T02:58:01.750Z,0.90
2017-12-27T03:00:30.825Z,0.80
2017-12-27T03:02:59.986Z,0.70
2017-12-27T03:05:28.289Z,0.60
2017-12-27T03:07:56.627Z,0.50
2017-12-27T03:10:24.952Z,0.60
2017-12-27T03:12:54.060Z,0.60
2017-12-27T03:15:23.145Z,0.60
2017-12-27T03:17:51.471Z,0.60
2017-12-27T03:20:19.780Z,0.70
2017-12-27T03:22:48.124Z,0.50
2017-12-27T03:25:16.436Z,0.40
2017-12-27T03:27:44.772Z,0.30
2017-12-27T03:30:13.113Z,0.30
2017-12-27T03:32:42.232Z,0.30
2017-12-27T03:35:11.305Z,0.40
2017-12-27T03:37:40.424Z,0.30
2017-12-27T03:40:09.526Z,0.30
2017-12-27T03:42:38.629Z,0.10
2017-12-27T03:45:06.937Z,0.00
2017-12-27T03:47:35.270Z,0.10
2017-12-27T03:50:04.471Z,0.10
2017-12-27T03:52:32.829Z,0.10
2017-12-27T03:55:01.163Z,0.10
2017-12-27T03:57:29.497Z,0.00
2017-12-27T03:59:57.809Z,-0.20
2017-12-27T04:02:26.161Z,-0.20
2017-12-27T04:04:55.235Z,-0.10
2017-12-27T04:07:23.572Z,-0.10
2017-12-27T04:09:51.900Z,-0.10
2017-12-27T04:12:20.209Z,-0.10
2017-12-27T04:14:48.557Z,0.00
2017-12-27T04:17:16.863Z,0.00
2017-12-27T04:19:45.206Z,0.00
2017-12-27T04:22:13.510Z,0.00
2017-12-27T04:24:42.604Z,-0.30
2017-12-27T04:27:10.916Z,-0.30
2017-12-27T04:29:39.252Z,-0.30
2017-12-27T04:32:08.344Z,-0.10
2017-12-27T04:34:36.685Z,-0.10
2017-12-27T04:37:05.007Z,-0.10
2017-12-27T04:39:33.365Z,-0.10
2017-12-27T04:42:01.682Z,-0.10
2017-12-27T04:44:30.783Z,0.00
2017-12-27T04:46:59.088Z,0.00
2017-12-27T04:49:27.414Z,0.00
2017-12-27T04:51:55.727Z,0.00
2017-12-27T04:54:24.069Z,0.00
2017-12-27T04:56:52.384Z,0.00
2017-12-27T04:59:20.714Z,0.00
2017-12-27T05:01:49.018Z,0.10
2017-12-27T05:04:18.101Z,0.00
2017-12-27T05:06:47.204Z,0.10
2017-12-27T05:09:16.282Z,0.20
2017-12-27T05:11:45.410Z,0.30
2017-12-27T05:14:13.728Z,0.30
2017-12-27T05:16:42.065Z,0.20
2017-12-27T05:19:10.374Z,0.30
2017-12-27T05:21:38.706Z,0.30
2017-12-27T05:24:07.010Z,0.30
2017-12-27T05:26:35.348Z,0.30
2017-12-27T05:29:03.659Z,0.40
2017-12-27T05:31:31.993Z,0.40
2017-12-27T05:34:00.316Z,0.50
2017-12-27T05:36:29.458Z,0.50
2017-12-27T05:38:57.792Z,0.50
2017-12-27T05:41:26.860Z,0.50
2017-12-27T05:43:55.200Z,0.50
2017-12-27T05:46:23.509Z,0.50
2017-12-27T05:48:51.838Z,0.40
2017-12-27T05:51:20.158Z,0.40
2017-12-27T05:53:48.486Z,0.40
2017-12-27T05:56:17.560Z,0.50
2017-12-27T05:58:46.661Z,0.50
2017-12-27T06:01:15.740Z,0.60
2017-12-27T06:03:44.072Z,0.60
2017-12-27T06:06:12.384Z,0.50
2017-12-27T06:08:40.725Z,0.50
2017-12-27T06:11:09.798Z,0.60
2017-12-27T06:13:38.895Z,0.60
2017-12-27T06:16:07.987Z,0.60
2017-12-27T06:18:37.095Z,0.60
2017-12-27T06:21:08.638Z,0.60
2017-12-27T06:23:37.752Z,0.50
2017-12-27T06:26:06.063Z,0.50
2017-12-27T06:28:34.379Z,0.50
2017-12-27T06:31:02.715Z,0.30
2017-12-27T06:33:31.034Z,0.20
2017-12-27T06:35:59.362Z,0.40
2017-12-27T06:38:27.682Z,0.50
2017-12-27T06:40:56.092Z,0.60
2017-12-27T06:43:25.161Z,0.60
2017-12-27T06:45:53.500Z,0.60
2017-12-27T06:48:21.805Z,0.60
2017-12-27T06:50:50.148Z,0.60
2017-12-27T06:53:18.466Z,0.60
2017-12-27T06:55:46.798Z,0.60
2017-12-27T06:58:15.104Z,0.60
2017-12-27T07:00:43.455Z,0.60
2017-12-27T07:03:11.761Z,0.60
2017-12-27T07:05:40.105Z,0.60
2017-12-27T07:08:08.421Z,0.50
2017-12-27T07:10:36.748Z,0.60
2017-12-27T07:13:05.834Z,0.70
2017-12-27T07:15:35.727Z,0.70
2017-12-27T07:18:04.047Z,0.70
2017-12-27T07:20:32.374Z,0.70
2017-12-27T07:23:00.702Z,0.70
2017-12-27T07:25:29.034Z,0.70
2017-12-27T07:27:57.341Z,0.70
2017-12-27T07:30:26.452Z,0.70
2017-12-27T07:32:54.759Z,0.70
2017-12-27T07:35:23.092Z,0.70
2017-12-27T07:37:52.176Z,0.60
2017-12-27T07:40:20.514Z,0.60
2017-12-27T07:42:48.847Z,0.60
2017-12-27T07:45:17.937Z,0.70
2017-12-27T07:47:47.081Z,0.70
2017-12-27T07:50:15.384Z,0.70
2017-12-27T07:52:43.715Z,0.70
2017-12-27T07:55:12.042Z,0.70
2017-12-27T07:57:40.393Z,0.80
2017-12-27T08:00:08.710Z,0.80
2017-12-27T08:02:37.072Z,0.80
2017-12-27T08:05:05.381Z,0.80
2017-12-27T08:07:34.476Z,0.80
2017-12-27T08:10:03.565Z,0.90
2017-12-27T08:12:31.915Z,0.90
2017-12-27T08:15:00.232Z,0.90
2017-12-27T08:17:29.373Z,0.90
2017-12-27T08:19:57.665Z,0.90
2017-12-27T08:22:25.998Z,1.00
2017-12-27T08:24:55.090Z,1.00
2017-12-27T08:27:23.426Z,1.00
2017-12-27T08:29:51.733Z,1.00
2017-12-27T08:32:20.848Z,0.80
2017-12-27T08:34:49.934Z,0.90
2017-12-27T08:37:19.032Z,1.00
2017-12-27T08:39:48.140Z,0.90
2017-12-27T08:42:17.252Z,0.70
2017-12-27T08:44:45.557Z,0.70
2017-12-27T08:47:13.868Z,0.70
2017-12-27T08:49:42.214Z,0.80
2017-12-27T08:52:10.528Z,1.00
2017-12-27T08:54:38.872Z,1.20
2017-12-27T08:57:07.202Z,1.10
2017-12-27T08:59:35.541Z,1.30
2017-12-27T09:02:03.871Z,1.40
2017-12-27T09:04:32.222Z,1.30
2017-12-27T09:07:00.546Z,1.20
2017-12-27T09:09:28.907Z,1.30
2017-12-27T09:11:57.235Z,1.40
2017-12-27T09:14:25.568Z,1.30
2017-12-27T09:16:53.903Z,1.20
2017-12-27T09:19:22.273Z,1.10
2017-12-27T09:21:50.603Z,1.20
2017-12-27T09:24:18.931Z,1.40
2017-12-27T09:26:47.308Z,1.40
2017-12-27T09:29:15.649Z,1.60
2017-12-27T09:31:44.794Z,1.70
2017-12-27T09:34:13.125Z,1.80
2017-12-27T09:36:41.482Z,1.90
2017-12-27T09:39:09.820Z,1.90
2017-12-27T09:41:38.214Z,2.00
2017-12-27T09:44:06.584Z,2.00
2017-12-27T09:46:34.961Z,2.00
2017-12-27T09:49:03.297Z,2.10
2017-12-27T09:51:31.644Z,2.00
2017-12-27T09:53:59.981Z,1.90
2017-12-27T09:56:28.329Z,2.00
2017-12-27T09:58:56.658Z,2.10
2017-12-27T10:01:25.020Z,2.00
2017-12-27T10:03:53.336Z,2.00
2017-12-27T10:06:21.689Z,2.10
2017-12-27T10:08:50.033Z,2.10
2017-12-27T10:11:18.383Z,1.90
2017-12-27T10:13:47.474Z,2.20
2017-12-27T10:16:15.822Z,2.20
2017-12-27T10:18:44.142Z,2.20
2017-12-27T10:21:23.054Z,1.90
2017-12-27T10:23:51.377Z,2.00
2017-12-27T10:26:19.723Z,2.10
2017-12-27T10:28:48.810Z,2.20
2017-12-27T10:31:17.919Z,2.30
2017-12-27T10:33:47.009Z,2.40
2017-12-27T10:36:15.378Z,2.40
2017-12-27T10:38:43.726Z,2.50
2017-12-27T10:41:12.081Z,2.70
2017-12-27T10:43:40.401Z,2.80
2017-12-27T10:46:08.749Z,2.90
2017-12-27T10:48:37.079Z,2.90
2017-12-27T10:51:06.190Z,2.90
2017-12-27T10:53:34.542Z,2.90
2017-12-27T10:56:02.880Z,2.90
2017-12-27T10:58:31.213Z,2.90
2017-12-27T11:01:00.345Z,3.10
2017-12-27T11:03:28.688Z,3.10
2017-12-27T11:05:57.819Z,3.10
2017-12-27T11:08:26.142Z,3.10
2017-12-27T11:10:54.499Z,3.20
2017-12-27T11:13:22.852Z,3.30
2017-12-27T11:15:51.199Z,3.50
2017-12-27T11:18:20.308Z,3.70
2017-12-27T11:20:48.686Z,3.70
2017-12-27T11:23:17.014Z,3.70
2017-12-27T11:25:45.358Z,3.80
2017-12-27T11:28:13.687Z,3.80
2017-12-27T11:30:42.046Z,3.90
2017-12-27T11:33:10.381Z,3.90
2017-12-27T11:35:38.774Z,4.10
2017-12-27T11:38:07.107Z,4.10
2017-12-27T11:40:35.465Z,4.20
2017-12-27T11:43:03.782Z,4.20
2017-12-27T11:45:32.134Z,4.30
2017-12-27T11:48:00.454Z,4.30
2017-12-27T11:50:29.559Z,4.50
2017-12-27T11:52:58.644Z,4.40
2017-12-27T11:55:27.756Z,4.50
2017-12-27T11:57:56.072Z,4.40
2017-12-27T12:00:24.481Z,4.50
2017-12-27T12:02:53.591Z,4.60
2017-12-27T12:05:21.929Z,4.60
2017-12-27T12:07:50.249Z,4.60
2017-12-27T12:10:19.360Z,4.60
2017-12-27T12:12:47.712Z,4.60
2017-12-27T12:15:16.066Z,4.50
2017-12-27T12:17:44.378Z,4.60
2017-12-27T12:20:12.727Z,4.70
2017-12-27T12:22:41.058Z,4.70
2017-12-27T12:25:09.394Z,4.70
2017-12-27T12:27:37.717Z,4.70
2017-12-27T12:30:06.057Z,4.80
2017-12-27T12:32:35.167Z,4.70
2017-12-27T12:35:03.505Z,4.70
2017-12-27T12:37:31.893Z,4.70
2017-12-27T12:40:00.215Z,4.80
2017-12-27T12:42:29.317Z,4.90
2017-12-27T12:44:57.660Z,4.90
2017-12-27T12:47:26.021Z,4.90
2017-12-27T12:49:54.345Z,5.00
2017-12-27T12:52:23.450Z,4.90
2017-12-27T12:54:52.538Z,4.90
2017-12-27T12:57:22.813Z,5.00
2017-12-27T12:59:51.302Z,5.00
2017-12-27T13:02:19.640Z,5.00
2017-12-27T13:04:47.964Z,5.10
2017-12-27T13:07:16.321Z,5.20
2017-12-27T13:09:44.629Z,5.10
2017-12-27T13:12:12.991Z,5.10
2017-12-27T13:14:41.307Z,5.10
2017-12-27T13:17:09.650Z,5.20
2017-12-27T13:19:37.966Z,5.30
2017-12-27T13:22:06.315Z,5.30
2017-12-27T13:24:34.625Z,5.40
2017-12-27T13:27:02.953Z,5.40
2017-12-27T13:29:31.270Z,5.40
2017-12-27T13:31:59.622Z,5.30
2017-12-27T13:34:27.940Z,5.30
2017-12-27T13:36:57.054Z,5.40
2017-12-27T13:39:26.137Z,5.40
2017-12-27T13:41:55.235Z,5.40
2017-12-27T13:44:24.319Z,5.30
2017-12-27T13:46:52.669Z,5.30
2017-12-27T13:49:20.994Z,5.30
2017-12-27T13:51:50.110Z,5.40
2017-12-27T13:54:18.452Z,5.40
2017-12-27T13:56:46.784Z,5.40
2017-12-27T13:59:15.109Z,5.40
2017-12-27T14:01:43.455Z,5.40
2017-12-27T14:04:11.767Z,5.40
2017-12-27T14:06:40.105Z,5.30
2017-12-27T14:09:08.418Z,5.30
2017-12-27T14:11:36.739Z,5.30
2017-12-27T14:14:05.086Z,5.30
2017-12-27T14:16:33.407Z,5.20
2017-12-27T14:19:01.741Z,5.00
2017-12-27T14:21:30.830Z,5.10
2017-12-27T14:23:59.165Z,5.10
2017-12-27T14:26:27.493Z,5.20
2017-12-27T14:28:56.611Z,5.00
2017-12-27T14:31:25.693Z,5.10
2017-12-27T14:33:54.796Z,5.10
2017-12-27T14:36:23.881Z,5.10
2017-12-27T14:38:52.202Z,5.10
2017-12-27T14:41:20.511Z,5.10
2017-12-27T14:43:48.852Z,5.10
2017-12-27T14:46:17.179Z,4.90
2017-12-27T14:48:45.520Z,4.80
2017-12-27T14:51:13.836Z,4.80
2017-12-27T14:53:42.207Z,4.80
2017-12-27T14:56:10.529Z,4.90
2017-12-27T14:58:39.628Z,5.00
2017-12-27T15:01:08.707Z,5.10
2017-12-27T15:03:37.852Z,5.10
2017-12-27T15:06:06.220Z,5.00
2017-12-27T15:08:34.567Z,5.10
2017-12-27T15:11:03.657Z,4.90
2017-12-27T15:13:32.768Z,5.00
2017-12-27T15:16:01.851Z,5.00
2017-12-27T15:18:30.958Z,5.00
2017-12-27T15:21:00.045Z,5.00
2017-12-27T15:23:29.162Z,4.90
2017-12-27T15:25:57.464Z,4.90
2017-12-27T15:28:25.783Z,4.90
2017-12-27T15:30:54.100Z,4.80
2017-12-27T15:33:22.436Z,4.80
2017-12-27T15:35:50.756Z,4.80
2017-12-27T15:38:19.079Z,4.70
2017-12-27T15:40:47.404Z,4.70
2017-12-27T15:43:16.480Z,4.50
2017-12-27T15:45:44.819Z,4.50
2017-12-27T15:48:13.186Z,4.40
2017-12-27T15:50:41.523Z,4.20
2017-12-27T15:53:09.842Z,4.30
2017-12-27T15:55:38.234Z,4.50
2017-12-27T15:58:06.594Z,4.50
2017-12-27T16:00:34.975Z,4.50
2017-12-27T16:03:03.349Z,4.40
2017-12-27T16:05:31.680Z,4.20
2017-12-27T16:07:59.997Z,4.10
2017-12-27T16:10:28.340Z,4.00
2017-12-27T16:12:56.645Z,4.20
2017-12-27T16:15:25.748Z,4.20
2017-12-27T16:17:54.076Z,4.20
2017-12-27T16:20:22.416Z,4.20
2017-12-27T16:22:50.729Z,4.10
2017-12-27T16:25:19.107Z,4.20
2017-12-27T16:27:47.421Z,4.30
2017-12-27T16:30:16.567Z,4.30
2017-12-27T16:32:44.926Z,4.30
2017-12-27T16:35:13.268Z,4.30
2017-12-27T16:37:41.594Z,4.40
2017-12-27T16:40:09.929Z,4.40
2017-12-27T16:42:38.247Z,4.30
2017-12-27T16:45:06.578Z,4.20
2017-12-27T16:47:34.885Z,4.30
2017-12-27T16:50:03.230Z,4.20
2017-12-27T16:52:31.538Z,4.10
2017-12-27T16:55:00.649Z,4.10
2017-12-27T16:57:28.965Z,4.10
2017-12-27T16:59:57.351Z,4.20
2017-12-27T17:02:25.681Z,4.10
2017-12-27T17:04:54.025Z,4.00
2017-12-27T17:07:22.381Z,4.00
2017-12-27T17:09:50.717Z,4.00
2017-12-27T17:12:19.836Z,3.90
2017-12-27T17:14:48.155Z,3.80
2017-12-27T17:17:16.477Z,3.80
2017-12-27T17:19:44.857Z,3.70
2017-12-27T17:22:13.185Z,3.70
2017-12-27T17:24:41.516Z,3.80
2017-12-27T17:27:09.825Z,3.80
2017-12-27T17:29:38.145Z,3.80
2017-12-27T17:32:07.263Z,3.50
2017-12-27T17:34:35.611Z,3.50
2017-12-27T17:37:03.931Z,3.30
2017-12-27T17:39:32.257Z,3.30
2017-12-27T17:42:00.632Z,3.50
2017-12-27T17:44:28.945Z,3.50
2017-12-27T17:46:58.082Z,3.50
2017-12-27T17:49:26.434Z,3.40
2017-12-27T17:51:54.800Z,3.50
2017-12-27T17:54:23.869Z,3.20
2017-12-27T17:56:52.254Z,3.20
2017-12-27T17:59:20.624Z,3.20
2017-12-27T18:01:48.979Z,3.10
2017-12-27T18:04:17.347Z,3.00
2017-12-27T18:06:45.661Z,3.00
2017-12-27T18:09:13.995Z,3.10
2017-12-27T18:11:42.345Z,3.10
2017-12-27T18:14:11.495Z,3.10
2017-12-27T18:16:39.813Z,3.10
2017-12-27T18:19:08.195Z,3.00
2017-12-27T18:21:36.547Z,3.00
2017-12-27T18:24:04.943Z,3.00
2017-12-27T18:26:33.293Z,2.90
2017-12-27T18:29:01.687Z,2.90
2017-12-27T18:31:30.054Z,2.90
2017-12-27T18:33:58.428Z,2.70
2017-12-27T18:36:26.775Z,2.60
2017-12-27T18:38:55.139Z,2.60
2017-12-27T18:41:24.273Z,2.70
2017-12-27T18:43:52.622Z,2.70
2017-12-27T18:46:21.781Z,2.60
2017-12-27T18:48:50.168Z,2.60
2017-12-27T18:51:18.552Z,2.60
2017-12-27T18:53:46.897Z,2.60
2017-12-27T18:56:15.271Z,2.60
2017-12-27T18:58:43.628Z,2.50
2017-12-27T19:01:12.015Z,2.30
2017-12-27T19:03:40.383Z,2.20
2017-12-27T19:06:08.763Z,2.20
2017-12-27T19:08:37.125Z,2.20
2017-12-27T19:11:06.221Z,2.30
2017-12-27T19:13:35.358Z,2.10
2017-12-27T19:16:03.730Z,2.10
2017-12-27T19:18:32.108Z,2.20
2017-12-27T19:21:00.479Z,2.30
2017-12-27T19:23:28.830Z,2.20
2017-12-27T19:25:57.961Z,1.90
2017-12-27T19:28:27.236Z,1.90
2017-12-27T19:30:56.379Z,1.80
2017-12-27T19:33:25.511Z,1.80
2017-12-27T19:35:53.897Z,1.80
2017-12-27T19:38:23.045Z,2.00
2017-12-27T19:40:51.431Z,2.00
2017-12-27T19:43:19.803Z,2.10
2017-12-27T19:45:48.948Z,2.00
2017-12-27T19:48:17.320Z,2.00
2017-12-27T19:50:45.695Z,2.10
2017-12-27T19:53:14.056Z,2.10
2017-12-27T19:55:42.464Z,2.00
2017-12-27T19:58:10.811Z,2.00
2017-12-27T20:00:39.193Z,2.00
2017-12-27T20:03:07.559Z,1.90
2017-12-27T20:05:35.955Z,1.80
2017-12-27T20:08:04.324Z,1.90
2017-12-27T20:10:32.695Z,1.90
2017-12-27T20:13:01.051Z,1.80
2017-12-27T20:15:30.908Z,1.70
2017-12-27T20:17:59.281Z,1.70
2017-12-27T20:20:27.652Z,1.60
2017-12-27T20:22:56.038Z,1.70
2017-12-27T20:25:24.391Z,1.60
2017-12-27T20:27:52.768Z,1.70
2017-12-27T20:30:21.119Z,1.70
2017-12-27T20:32:49.570Z,1.70
2017-12-27T20:35:17.914Z,1.70
2017-12-27T20:37:46.297Z,1.70
2017-12-27T20:40:14.659Z,1.70
2017-12-27T20:42:43.043Z,1.70
2017-12-27T20:45:11.426Z,1.60
2017-12-27T20:47:39.820Z,1.70
2017-12-27T20:50:08.935Z,1.70
2017-12-27T20:52:37.334Z,1.70
2017-12-27T20:55:05.708Z,1.70
2017-12-27T20:57:34.109Z,1.70
2017-12-27T21:00:02.488Z,1.80
2017-12-27T21:02:31.669Z,1.70
2017-12-27T21:05:00.048Z,1.70
2017-12-27T21:07:28.450Z,1.70
2017-12-27T21:09:56.808Z,1.80
2017-12-27T21:12:25.216Z,1.90
2017-12-27T21:14:54.349Z,1.90
2017-12-27T21:17:22.703Z,1.90
2017-12-27T21:19:51.857Z,2.00
2017-12-27T21:22:20.222Z,2.00
2017-12-27T21:24:48.596Z,2.00
2017-12-27T21:27:16.965Z,1.90
2017-12-27T21:29:45.384Z,2.00
2017-12-27T21:32:13.763Z,2.00
2017-12-27T21:34:42.160Z,1.90
2017-12-27T21:37:10.527Z,2.00
2017-12-27T21:39:38.952Z,2.00
2017-12-27T21:42:07.358Z,2.00
2017-12-27T21:44:36.435Z,2.00
2017-12-27T21:47:06.712Z,2.00
2017-12-27T21:49:40.973Z,2.00
2017-12-27T21:52:09.469Z,2.00
2017-12-27T21:54:39.637Z,2.10
2017-12-27T21:57:16.622Z,2.10
2017-12-27T21:59:51.733Z,2.00
2017-12-27T22:02:20.318Z,2.00
2017-12-27T22:04:49.825Z,2.10
2017-12-27T22:07:18.325Z,2.10
2017-12-27T22:09:46.863Z,2.20
2017-12-27T22:12:15.383Z,2.20
2017-12-27T22:14:43.972Z,2.20
2017-12-27T22:17:13.475Z,2.20
2017-12-27T22:19:42.014Z,2.20
2017-12-27T22:22:10.469Z,2.20
2017-12-27T22:24:38.981Z,2.20
2017-12-27T22:27:07.481Z,2.20
2017-12-27T22:29:35.984Z,2.20
2017-12-27T22:32:04.404Z,2.20
2017-12-27T22:34:32.882Z,2.20
2017-12-27T22:37:01.385Z,2.30
2017-12-27T22:39:29.873Z,2.30
2017-12-27T22:41:58.289Z,2.30
2017-12-27T22:44:26.708Z,2.40
2017-12-27T22:46:55.156Z,2.30
2017-12-27T22:49:23.579Z,2.40
2017-12-27T22:51:52.014Z,2.50
2017-12-27T22:54:20.448Z,2.50
2017-12-27T22:56:48.862Z,2.40
2017-12-27T22:59:17.290Z,2.50
2017-12-27T23:01:45.730Z,2.50
2017-12-27T23:04:14.158Z,2.50
2017-12-27T23:06:42.610Z,2.50
2017-12-27T23:09:11.040Z,2.50
2017-12-27T23:11:39.492Z,2.50
2017-12-27T23:14:08.630Z,2.50
2017-12-27T23:16:37.061Z,2.50
2017-12-27T23:19:05.494Z,2.50
2017-12-27T23:21:33.976Z,2.50
2017-12-27T23:24:02.458Z,2.50
2017-12-27T23:26:30.860Z,2.60
2017-12-27T23:28:59.248Z,2.60
2017-12-27T23:31:27.670Z,2.60
2017-12-27T23:33:56.061Z,2.70
2017-12-27T23:36:24.496Z,2.70
2017-12-27T23:38:52.925Z,2.80
2017-12-27T23:41:21.393Z,2.90
2017-12-27T23:43:49.829Z,2.90
2017-12-27T23:46:18.245Z,3.00
2017-12-27T23:48:46.660Z,3.10
2017-12-27T23:51:15.070Z,3.10
2017-12-27T23:53:43.487Z,3.10
2017-12-27T23:56:12.679Z,3.20
2017-12-27T23:58:41.065Z,3.20
